Time;durP1;ratioP1;P1;durP2;ratioP2;P2;SDS_P1;SDS_P2;PMS_P1;PMS_P2;Temp;Humidity;BMP_temperature;BMP_pressure;BME280_temperature;BME280_humidity;BME280_pressure;Samples;Min_cycle;Max_cycle;Signal;HPM_P1;HPM_P2
2022/02/10 00:18:02;;;;;;;23.42;13.85;;;;;;;2.96;72.09;101260.44;5047957;28;20120;-20
2022/02/10 00:36:23;;;;;;;21.10;12.38;;;;;;;2.77;72.28;101246.31;5047673;28;20424;-21
2022/02/10 00:38:58;;;;;;;19.80;12.10;;;;;;;2.73;71.86;101250.19;5047415;28;20112;-20
2022/02/10 00:41:23;;;;;;;19.13;11.35;;;;;;;2.70;72.09;101244.38;5047817;28;20068;-21
2022/02/10 00:43:49;;;;;;;16.63;10.07;;;;;;;2.55;72.41;101246.56;5047673;28;20025;-21
2022/02/10 00:46:15;;;;;;;17.95;9.90;;;;;;;2.76;71.08;101234.13;5029953;28;20469;-20
2022/02/10 00:48:40;;;;;;;17.83;10.25;;;;;;;2.76;71.29;101249.94;5029449;28;20090;-20
2022/02/10 00:51:06;;;;;;;18.38;11.52;;;;;;;2.68;70.99;101241.88;5047582;28;20025;-20
2022/02/10 00:53:33;;;;;;;14.90;9.85;;;;;;;2.46;71.86;101257.94;5047457;28;20032;-21
2022/02/10 00:55:59;;;;;;;15.73;9.95;;;;;;;2.60;71.95;101260.19;5047469;28;20092;-21
2022/02/10 00:58:31;;;;;;;17.55;10.50;;;;;;;2.75;71.92;101258.78;5047021;28;20464;-22
2022/02/10 01:30:16;;;;;;;16.30;10.57;;;;;;;3.17;70.50;101268.22;5035638;28;20071;-21
2022/02/10 01:32:44;;;;;;;19.02;11.35;;;;;;;3.33;70.12;101257.91;5050642;28;20713;-20
2022/02/10 01:35:14;;;;;;;18.33;11.13;;;;;;;3.10;70.45;101260.00;5050906;28;20033;-20
2022/02/10 01:37:40;;;;;;;16.75;10.02;;;;;;;2.95;70.17;101248.25;5033549;28;20055;-21
2022/02/10 01:40:13;;;;;;;17.85;10.45;;;;;;;3.01;70.39;101239.78;5050682;28;20021;-22
2022/02/10 02:04:20;;;;;;;;;;;;;;;1.84;71.45;101273.84;5035847;28;20035;-20
2022/02/10 02:06:47;;;;;;;17.52;11.13;;;;;;;2.28;70.53;101271.75;5050074;28;19916;-21
2022/02/10 02:09:15;;;;;;;18.45;11.18;;;;;;;2.35;71.32;101278.16;5049913;28;20033;-20
2022/02/10 02:11:47;;;;;;;18.95;11.35;;;;;;;2.50;70.52;101260.16;5032747;28;20036;-21
2022/02/10 02:14:21;;;;;;;17.70;11.32;;;;;;;1.83;71.94;101272.16;5050338;28;20029;-20
2022/02/10 02:16:59;;;;;;;18.65;10.10;;;;;;;1.13;73.26;101253.53;5049911;28;20067;-20
2022/02/10 02:19:24;;;;;;;;;;;;;;;1.23;72.42;101279.88;5050670;28;20059;-20
2022/02/10 02:21:50;;;;;;;47.10;27.55;;;;;;;1.11;72.38;101276.47;5049844;28;19951;-20
2022/02/10 02:24:20;;;;;;;23.15;14.45;;;;;;;1.38;72.56;101280.38;5050025;28;20033;-21
2022/02/10 02:26:50;;;;;;;23.15;12.73;;;;;;;1.26;72.63;101252.50;5048322;28;20025;-21
2022/02/10 02:29:19;;;;;;;21.85;13.40;;;;;;;1.89;71.96;101276.91;5049787;28;20116;-20
2022/02/10 02:31:51;;;;;;;21.35;12.70;;;;;;;2.25;70.81;101277.31;5049837;28;20037;-21
2022/02/10 02:37:32;;;;;;;23.85;14.40;;;;;;;2.35;70.01;101275.53;5049863;28;20131;-20
2022/02/10 03:06:34;;;;;;;20.73;12.63;;;;;;;2.07;72.05;101271.00;5048925;28;20037;-20
2022/02/10 03:09:05;;;;;;;20.40;12.18;;;;;;;2.41;70.86;101282.88;5031702;28;20469;-22
2022/02/10 03:11:31;;;;;;;21.23;12.60;;;;;;;2.66;69.69;101290.41;5031098;28;20554;-21
2022/02/10 03:14:01;;;;;;;22.52;12.45;;;;;;;2.30;70.49;101290.88;5031019;28;20033;-21
2022/02/10 03:19:00;;;;;;;20.08;11.95;;;;;;;2.26;69.54;101286.03;5049150;28;20037;-21
2022/02/10 04:55:41;;;;;;;34.92;19.90;;;;;;;0.44;74.18;101330.03;5051638;28;20578;-21
2022/02/10 05:01:10;;;;;;;35.58;20.40;;;;;;;1.18;71.95;101332.78;5051478;28;20057;-21
2022/02/10 05:03:53;;;;;;;37.13;22.15;;;;;;;1.52;70.71;101322.09;5047931;28;20154;-20
2022/02/10 05:35:29;;;;;;;95.10;48.35;;;;;;;0.77;72.61;101338.78;5050836;28;20033;-20
2022/02/10 05:38:02;;;;;;;94.10;48.17;;;;;;;0.86;73.06;101350.34;5050509;28;20044;-22
2022/02/10 05:49:27;;;;;;;86.75;46.35;;;;;;;0.54;74.38;101349.34;5033532;28;20052;-20
2022/02/10 05:54:20;;;;;;;124.67;61.97;;;;;;;1.19;73.06;101358.13;5050493;28;20033;-20
2022/02/10 07:14:59;;;;;;;195.70;65.63;;;;;;;4.45;68.98;101380.31;5048907;28;20124;-21
2022/02/10 07:50:38;;;;;;;51.13;32.10;;;;;;;5.76;66.76;101389.50;5048349;28;20036;-21
2022/02/10 08:58:08;;;;;;;49.35;29.60;;;;;;;9.92;55.63;101390.97;5026829;28;20119;-21
2022/02/10 09:05:39;;;;;;;37.17;24.52;;;;;;;10.30;54.86;101372.28;5017487;28;20160;-20
2022/02/10 09:13:18;;;;;;;35.88;21.75;;;;;;;9.99;54.16;101402.56;5029193;28;20037;-20
2022/02/10 10:02:14;;;;;;;15.30;9.27;;;;;;;11.73;46.11;101346.59;5050032;28;20033;-20
2022/02/10 10:05:46;;;;;;;12.18;7.55;;;;;;;12.08;45.83;101345.81;5049773;28;20070;-20
2022/02/10 10:10:51;;;;;;;10.48;7.13;;;;;;;12.99;44.23;101345.53;5050014;28;20025;-21
2022/02/10 10:24:39;;;;;;;7.43;5.15;;;;;;;12.74;45.06;101319.31;5026933;28;20117;-20
2022/02/10 10:54:28;;;;;;;10.40;7.70;;;;;;;14.33;39.73;101255.84;5031953;28;20659;-21
2022/02/10 10:56:56;;;;;;;9.93;6.30;;;;;;;14.24;40.12;101251.75;5033813;28;20040;-20
2022/02/10 11:39:11;;;;;;;5.90;3.55;;;;;;;17.62;32.24;101185.16;5048621;28;20064;-20
2022/02/10 12:29:18;;;;;;;6.75;3.85;;;;;;;19.28;29.07;101138.03;5048074;28;20137;-20
2022/02/10 12:29:57;;;;;;;87.05;45.88;;;;;;;18.58;32.04;101133.22;5047428;28;20104;-20
2022/02/10 13:48:53;;;;;;;8.00;3.70;;;;;;;22.92;24.07;101114.00;5050355;28;20064;-20
2022/02/10 14:13:31;;;;;;;5.85;3.67;;;;;;;28.33;17.54;101119.03;5049836;28;20112;-20
2022/02/10 14:18:06;;;;;;;5.40;3.90;;;;;;;29.37;17.26;101113.22;5049911;28;20044;-20
2022/02/10 14:28:21;;;;;;;13.40;8.48;;;;;;;27.57;18.68;101093.13;5049606;28;20377;-20
2022/02/10 14:30:47;;;;;;;17.80;7.95;;;;;;;28.19;18.40;101094.41;5048883;28;20025;-21
2022/02/10 14:33:14;;;;;;;11.23;6.68;;;;;;;26.72;19.32;101097.31;5049478;28;20051;-20
2022/02/10 14:38:20;;;;;;;5.20;2.58;;;;;;;23.69;23.00;101098.19;5049527;28;20390;-20
2022/02/10 15:12:47;;;;;;;41.05;27.17;;;;;;;14.54;38.00;101052.56;4986455;28;20045;-21
2022/02/10 15:29:12;;;;;;;87.72;67.60;;;;;;;13.72;41.53;101034.59;5048255;28;20044;-20
2022/02/10 15:31:25;;;;;;;95.40;73.97;;;;;;;13.95;41.23;101047.44;5048090;28;20214;-20
2022/02/10 16:14:29;;;;;;;127.82;77.38;;;;;;;12.27;46.41;101026.81;5047369;28;20036;-20
2022/02/10 16:18:50;;;;;;;56.67;28.63;;;;;;;12.30;46.69;101046.97;5047139;28;20036;-22
2022/02/10 16:21:26;;;;;;;67.78;33.80;;;;;;;12.23;46.47;101036.28;5046950;28;20047;-20
2022/02/10 16:23:59;;;;;;;73.10;35.70;;;;;;;11.95;46.66;101045.31;5047445;28;20033;-21
2022/02/10 16:26:34;;;;;;;62.65;31.02;;;;;;;11.85;46.54;101031.50;5047080;28;20072;-20
2022/02/10 16:29:01;;;;;;;57.58;30.60;;;;;;;11.45;47.28;101044.75;5047290;28;20036;-21
2022/02/10 16:31:27;;;;;;;50.50;28.67;;;;;;;11.41;47.41;101022.16;5046799;28;20080;-20
2022/02/10 16:33:52;;;;;;;51.78;29.30;;;;;;;11.27;47.65;101055.97;5046939;28;20029;-20
2022/02/10 16:36:18;;;;;;;50.90;28.00;;;;;;;11.36;47.65;101051.28;5046603;28;20025;-20
2022/02/10 16:38:44;;;;;;;43.55;25.33;;;;;;;11.32;48.06;101044.69;5046703;28;20044;-20
2022/02/10 16:41:11;;;;;;;33.58;20.98;;;;;;;11.34;48.30;101043.50;5047118;28;20036;-20
2022/02/10 16:43:37;;;;;;;32.97;21.33;;;;;;;11.25;47.23;101029.47;5046668;28;20033;-20
2022/02/10 16:46:02;;;;;;;69.57;34.45;;;;;;;11.02;47.54;101040.47;5027881;28;20040;-20
2022/02/10 16:48:33;;;;;;;81.30;40.85;;;;;;;10.49;48.64;101044.66;5046316;28;20520;-20
2022/02/10 16:51:00;;;;;;;56.72;28.33;;;;;;;10.04;50.08;101048.38;5047010;28;20029;-22
2022/02/10 16:53:27;;;;;;;167.55;86.00;;;;;;;10.10;50.45;101045.97;5046883;28;20024;-20
2022/02/10 16:56:10;;;;;;;35.50;17.98;;;;;;;9.88;50.55;101043.28;5028892;28;20126;-20
2022/02/10 16:58:46;;;;;;;29.67;15.18;;;;;;;9.56;51.55;101044.59;5046268;28;20036;-21
2022/02/10 17:14:14;;;;;;;63.90;43.38;;;;;;;8.57;54.65;101037.81;5046577;28;20542;-21
2022/02/10 17:17:20;;;;;;;65.60;45.30;;;;;;;8.68;54.49;101033.03;5046493;28;20021;-20
2022/02/10 17:20:00;;;;;;;51.58;33.88;;;;;;;8.20;54.54;101004.91;5046217;28;20048;-21
2022/02/10 17:27:42;;;;;;;47.53;24.35;;;;;;;8.80;53.82;101045.69;5046883;28;20128;-21
2022/02/10 17:36:03;;;;;;;36.55;18.45;;;;;;;8.12;54.59;101025.41;5046455;28;20029;-20
2022/02/10 17:46:51;;;;;;;49.58;26.60;;;;;;;8.43;53.43;101042.09;5046028;28;20029;-21
2022/02/10 17:52:12;;;;;;;63.15;31.08;;;;;;;8.59;53.16;101038.44;5031130;28;20036;-21
2022/02/10 17:54:37;;;;;;;55.95;28.30;;;;;;;8.47;53.66;101042.56;5046047;28;20138;-21
2022/02/10 17:57:03;;;;;;;50.58;23.75;;;;;;;8.43;53.72;101052.72;5030586;28;20726;-21
2022/02/10 17:59:28;;;;;;;43.95;21.17;;;;;;;8.19;54.03;101052.91;5031520;28;20558;-20
2022/02/10 18:01:54;;;;;;;44.17;25.30;;;;;;;8.17;54.48;101042.47;5049449;28;20121;-21
2022/02/10 18:04:20;;;;;;;47.42;25.58;;;;;;;8.25;54.07;101047.72;5049582;28;20040;-21
2022/02/10 18:06:48;;;;;;;36.97;24.02;;;;;;;8.42;53.66;101048.41;5049474;28;20055;-20
2022/02/10 18:10:32;;;;;;;36.50;24.08;;;;;;;8.35;53.77;101052.75;5049456;28;20064;-20
2022/02/10 18:17:13;;;;;;;37.75;22.77;;;;;;;7.81;55.91;101037.75;5049661;28;20036;-20
2022/02/10 18:19:50;;;;;;;32.22;20.13;;;;;;;7.80;55.43;101048.53;5049355;28;20095;-20
2022/02/10 18:24:55;;;;;;;;;;;;;;;7.58;55.82;101051.03;5049747;28;20136;-20
2022/02/10 18:27:26;;;;;;;37.65;22.33;;;;;;;7.40;56.58;101053.09;5049531;28;19909;-21
2022/02/10 18:30:15;;;;;;;31.35;18.50;;;;;;;7.36;56.04;101049.16;5049201;28;20029;-21
2022/02/10 19:01:34;;;;;;;57.72;32.22;;;;;;;8.44;52.86;101056.22;5049042;28;20043;-21
2022/02/10 19:10:35;;;;;;;122.47;54.17;;;;;;;7.65;55.23;101056.44;5048594;28;20029;-20
2022/02/10 19:13:01;;;;;;;156.80;62.03;;;;;;;7.55;55.48;101067.28;5048761;28;20032;-21
2022/02/10 19:15:33;;;;;;;97.03;43.10;;;;;;;7.62;54.72;101047.00;5048730;28;20036;-21
2022/02/10 19:18:01;;;;;;;123.60;57.63;;;;;;;8.08;54.01;101061.31;5048626;28;20094;-22
2022/02/10 19:20:26;;;;;;;131.88;66.65;;;;;;;8.13;53.58;101061.59;5047866;28;20381;-21
2022/02/10 19:22:52;;;;;;;119.25;54.80;;;;;;;7.84;53.90;101040.03;5048413;28;20090;-20
2022/02/10 19:25:17;;;;;;;96.30;48.50;;;;;;;8.09;53.85;101047.00;5048144;28;20112;-21
2022/02/10 19:27:48;;;;;;;74.53;37.00;;;;;;;7.91;53.97;101061.44;5048301;28;20041;-20
2022/02/10 19:30:14;;;;;;;71.97;39.13;;;;;;;8.16;53.14;101048.78;5048125;28;20029;-20
2022/02/10 19:32:45;;;;;;;87.20;43.40;;;;;;;8.17;52.85;101050.44;5030123;28;20028;-21
2022/02/10 19:35:13;;;;;;;75.40;37.97;;;;;;;8.14;52.91;101077.34;5047714;28;20055;-22
2022/02/10 19:37:38;;;;;;;49.63;28.10;;;;;;;8.05;53.08;101062.50;5048101;28;20114;-21
2022/02/10 19:40:04;;;;;;;84.28;39.45;;;;;;;7.87;54.10;101076.06;5048014;28;20283;-21
2022/02/10 19:42:34;;;;;;;84.55;37.72;;;;;;;7.92;53.30;101073.69;5047804;28;20029;-21
2022/02/10 19:45:00;;;;;;;56.38;30.05;;;;;;;7.70;54.38;101085.13;5047821;28;20068;-21
2022/02/10 19:47:27;;;;;;;51.97;28.00;;;;;;;7.24;53.96;101091.97;5047711;28;20021;-22
2022/02/10 19:49:52;;;;;;;43.08;24.85;;;;;;;6.49;55.34;101059.69;5047780;28;20044;-22
2022/02/10 19:52:19;;;;;;;49.38;27.75;;;;;;;6.28;55.93;101068.97;5047841;28;20124;-20
2022/02/10 19:54:51;;;;;;;44.78;24.55;;;;;;;6.73;55.33;101078.19;5047442;28;20962;-20
2022/02/10 19:57:18;;;;;;;39.33;24.40;;;;;;;6.88;55.44;101082.81;5047631;28;20028;-20
2022/02/10 19:59:43;;;;;;;35.85;22.35;;;;;;;6.30;55.91;101060.88;5047155;28;20049;-21
2022/02/10 20:02:09;;;;;;;30.95;17.58;;;;;;;5.95;57.33;101061.00;5047220;28;20064;-20
2022/02/10 20:04:35;;;;;;;31.63;16.65;;;;;;;5.68;57.74;101046.22;5047556;28;20033;-22
2022/02/10 20:07:00;;;;;;;36.78;20.45;;;;;;;5.61;58.92;101067.19;5047511;28;20514;-20
2022/02/10 20:09:25;;;;;;;40.20;22.42;;;;;;;5.52;58.98;101056.78;5047470;28;20037;-21
2022/02/10 20:11:51;;;;;;;53.28;27.60;;;;;;;5.60;58.95;101064.72;5047335;28;20534;-21
2022/02/10 20:14:21;;;;;;;47.53;24.45;;;;;;;5.41;60.40;101081.69;5047218;28;20033;-20
2022/02/10 20:16:47;;;;;;;37.33;22.33;;;;;;;5.13;60.61;101036.13;5046998;28;20061;-22
2022/02/10 20:19:13;;;;;;;32.63;17.10;;;;;;;5.46;60.51;101073.28;5047133;28;20421;-20
2022/02/10 20:21:38;;;;;;;37.20;20.50;;;;;;;4.81;60.46;101056.13;5029693;28;20508;-21
2022/02/10 20:24:04;;;;;;;35.92;18.63;;;;;;;4.29;61.04;101080.72;5047134;28;20029;-20
2022/02/10 20:26:30;;;;;;;48.05;24.05;;;;;;;4.27;61.62;101066.84;5046841;28;20025;-21
2022/02/10 20:28:55;;;;;;;40.78;20.48;;;;;;;4.23;61.30;101070.78;5047063;28;20459;-20
2022/02/10 20:31:22;;;;;;;26.15;15.55;;;;;;;3.32;63.76;101065.56;5046709;28;20033;-21
2022/02/10 20:33:47;;;;;;;27.63;15.15;;;;;;;3.30;63.51;101041.16;5047185;28;20553;-21
2022/02/10 20:36:13;;;;;;;52.53;24.90;;;;;;;3.46;63.88;101064.25;5047132;28;20029;-21
2022/02/10 20:38:42;;;;;;;53.15;27.17;;;;;;;3.52;63.74;101056.56;5046798;28;20025;-20
2022/02/10 20:41:12;;;;;;;60.60;28.27;;;;;;;3.82;62.71;101063.31;5047064;28;20025;-21
2022/02/10 20:43:39;;;;;;;68.30;32.47;;;;;;;3.98;61.19;101056.53;5046757;28;20545;-21
2022/02/10 20:46:08;;;;;;;66.82;32.55;;;;;;;4.02;62.09;101064.00;5046749;28;20040;-21
2022/02/10 20:48:35;;;;;;;38.92;22.25;;;;;;;4.29;62.47;101064.03;5046759;28;20029;-21
2022/02/10 20:51:01;;;;;;;39.60;23.65;;;;;;;4.30;63.24;101060.44;5046809;28;20025;-21
2022/02/10 20:53:30;;;;;;;33.42;18.45;;;;;;;4.50;61.90;101053.16;5046920;28;20040;-20
2022/02/10 20:55:57;;;;;;;20.00;11.27;;;;;;;4.37;62.41;101062.31;5046636;28;20037;-20
2022/02/10 20:58:25;;;;;;;28.48;17.70;;;;;;;3.94;63.28;101065.72;5046721;28;20037;-22
2022/02/10 21:00:52;;;;;;;24.63;14.48;;;;;;;3.93;64.22;101038.50;5046448;28;20061;-20
2022/02/10 21:03:21;;;;;;;29.83;18.92;;;;;;;4.15;64.09;101065.44;5046813;28;20118;-20
2022/02/10 21:05:47;;;;;;;28.13;18.13;;;;;;;4.01;65.03;101056.22;5046673;28;20082;-21
2022/02/10 21:10:53;;;;;;;38.60;27.77;;;;;;;4.22;63.93;101037.41;5046497;28;20033;-20
2022/02/10 21:13:21;;;;;;;21.88;12.70;;;;;;;4.61;63.53;101055.53;5046957;28;20471;-20
2022/02/10 21:15:47;;;;;;;19.40;12.20;;;;;;;4.61;62.00;101037.03;5046701;28;20043;-22
2022/02/10 21:18:14;;;;;;;18.75;10.80;;;;;;;4.86;61.68;101050.38;5046747;28;20037;-21
2022/02/10 21:20:41;;;;;;;16.17;9.60;;;;;;;4.62;61.91;101038.69;5046524;28;20029;-20
2022/02/10 21:25:42;;;;;;;17.52;10.30;;;;;;;3.88;63.81;101014.38;5046620;28;20037;-21
2022/02/10 21:28:31;;;;;;;21.75;12.63;;;;;;;3.25;63.67;101024.94;5046676;28;20044;-20
2022/02/10 21:30:56;;;;;;;25.10;15.57;;;;;;;2.75;65.06;101036.69;5046676;28;20083;-21
2022/02/10 21:38:37;;;;;;;26.13;15.15;;;;;;;3.28;64.92;101037.84;5050089;28;20357;-21
2022/02/10 22:10:28;;;;;;;31.23;18.88;;;;;;;1.56;67.96;101017.72;5050826;28;20029;-21
2022/02/10 22:23:24;;;;;;;19.45;11.02;;;;;;;3.25;65.43;101027.59;5050606;28;20037;-21
2022/02/10 22:25:52;;;;;;;18.42;10.85;;;;;;;3.09;65.73;101029.06;5050120;28;20098;-21
2022/02/10 22:28:33;;;;;;;22.63;13.57;;;;;;;2.87;67.14;101024.19;5050483;28;20052;-21
2022/02/10 22:31:20;;;;;;;24.67;15.57;;;;;;;2.68;68.11;101023.28;5063455;28;20462;-21
2022/02/10 22:36:15;;;;;;;25.33;14.38;;;;;;;2.12;68.64;101014.38;5050123;28;20039;-20
2022/02/10 22:38:40;;;;;;;26.98;14.27;;;;;;;1.99;68.50;101006.78;5050161;28;20116;-21
2022/02/10 22:41:10;;;;;;;32.88;16.45;;;;;;;1.71;69.75;101005.81;5032526;28;20404;-20
2022/02/10 22:43:37;;;;;;;26.75;14.23;;;;;;;2.27;68.60;101019.19;5065158;28;20068;-20
2022/02/10 22:46:03;;;;;;;32.67;17.45;;;;;;;2.74;67.55;101020.06;5049976;28;20408;-21
2022/02/10 22:48:28;;;;;;;115.30;70.30;;;;;;;2.77;66.75;100982.88;5049833;28;20040;-29
2022/02/10 22:50:54;;;;;;;42.97;23.80;;;;;;;3.27;65.34;101009.81;5049724;28;20061;-20
2022/02/10 22:53:19;;;;;;;30.15;16.90;;;;;;;3.20;65.98;101005.13;5050192;28;20029;-21
2022/02/10 22:55:45;;;;;;;54.72;36.45;;;;;;;3.38;65.25;100985.88;5050027;28;20039;-21
2022/02/10 22:58:10;;;;;;;96.57;34.30;;;;;;;3.19;65.13;100977.13;5049846;28;20032;-20
2022/02/10 23:00:45;;;;;;;90.82;34.35;;;;;;;3.58;63.63;100992.69;5049426;28;20393;-21
2022/02/10 23:03:11;;;;;;;99.53;48.10;;;;;;;3.62;64.23;100996.69;5049470;28;20381;-21
2022/02/10 23:05:38;;;;;;;35.95;17.92;;;;;;;2.48;66.18;100992.72;5031845;28;20040;-20
2022/02/10 23:08:04;;;;;;;28.38;15.50;;;;;;;2.87;65.12;100989.91;5049601;28;20123;-20
2022/02/10 23:13:07;;;;;;;24.67;14.27;;;;;;;2.52;66.16;100988.81;5049502;28;20028;-20
2022/02/10 23:15:37;;;;;;;28.67;15.48;;;;;;;2.90;65.09;100973.81;5049432;28;20563;-21
2022/02/10 23:18:19;;;;;;;22.45;12.93;;;;;;;2.20;65.92;100985.56;5049028;28;20028;-21
2022/02/10 23:20:45;;;;;;;23.83;13.35;;;;;;;2.47;65.61;100980.50;5049084;28;20068;-21
2022/02/10 23:23:12;;;;;;;25.20;14.13;;;;;;;2.75;64.88;100973.47;5064482;28;20029;-20
2022/02/10 23:25:41;;;;;;;25.15;14.68;;;;;;;2.75;65.29;100978.75;5049359;28;20059;-21
2022/02/10 23:28:15;;;;;;;24.17;14.75;;;;;;;2.25;66.35;100964.09;5048950;28;20025;-21
2022/02/10 23:30:45;;;;;;;87.13;31.15;;;;;;;2.43;66.54;100979.94;5048778;28;20771;-21
2022/02/10 23:33:18;;;;;;;37.10;20.05;;;;;;;2.38;67.17;100980.38;5049036;28;20526;-21
2022/02/10 23:38:35;;;;;;;37.88;18.95;;;;;;;1.56;68.85;100965.13;5048627;28;20059;-21
2022/02/10 23:43:33;;;;;;;25.05;13.07;;;;;;;0.63;71.39;100961.88;5048797;28;20033;-21
2022/02/10 23:45:58;;;;;;;19.40;11.55;;;;;;;0.85;71.63;100954.78;5047997;28;20043;-21
2022/02/10 23:48:25;;;;;;;17.67;11.27;;;;;;;0.51;71.90;100952.44;5048398;28;20037;-20
2022/02/10 23:50:51;;;;;;;21.73;11.98;;;;;;;0.86;72.98;100959.91;5030757;28;20025;-20
2022/02/10 23:53:16;;;;;;;22.15;12.95;;;;;;;1.47;70.51;100934.41;5047857;28;20036;-21
2022/02/10 23:55:42;;;;;;;28.30;14.68;;;;;;;1.94;69.45;100950.28;5048276;28;20037;-21
